createdAt,value
2019-02-26T00:01:23.460Z,54.24
2019-02-26T00:03:52.392Z,54.94
2019-02-26T00:06:24.886Z,55.42
2019-02-26T00:08:54.110Z,54.84
2019-02-26T00:11:26.363Z,54.72
2019-02-26T00:13:56.767Z,54.46
2019-02-26T00:16:25.528Z,54.63
2019-02-26T00:18:56.225Z,55.29
2019-02-26T00:21:26.413Z,56.12
2019-02-26T00:23:56.728Z,55.87
2019-02-26T00:26:25.934Z,55.87
2019-02-26T00:28:56.757Z,56.23
2019-02-26T00:31:28.156Z,56.46
2019-02-26T00:33:57.282Z,56.31
2019-02-26T00:36:27.187Z,56.74
2019-02-26T00:38:58.450Z,56.81
2019-02-26T00:41:29.062Z,56.01
2019-02-26T00:43:59.932Z,54.97
2019-02-26T00:46:32.439Z,54.96
2019-02-26T00:49:03.026Z,55.64
2019-02-26T00:51:32.309Z,55.98
2019-02-26T00:54:02.006Z,56.04
2019-02-26T00:56:34.048Z,55.85
2019-02-26T00:59:03.462Z,56.26
2019-02-26T01:01:32.686Z,56.56
2019-02-26T01:04:01.933Z,57.14
2019-02-26T01:06:33.434Z,56.73
2019-02-26T01:09:04.129Z,56.65
2019-02-26T01:11:33.102Z,56.76
2019-02-26T01:14:02.367Z,56.51
2019-02-26T01:16:31.602Z,56.55
2019-02-26T01:19:00.821Z,56.40
2019-02-26T01:21:31.153Z,57.10
2019-02-26T01:24:01.733Z,57.68
2019-02-26T01:26:31.997Z,57.13
2019-02-26T01:29:01.281Z,56.88
2019-02-26T01:31:32.095Z,57.69
2019-02-26T01:34:01.451Z,57.90
2019-02-26T01:36:30.686Z,57.97
2019-02-26T01:38:59.960Z,58.04
2019-02-26T01:41:29.195Z,58.02
2019-02-26T01:43:58.424Z,58.24
2019-02-26T01:46:27.670Z,58.19
2019-02-26T01:48:57.558Z,58.64
2019-02-26T01:51:28.631Z,58.93
2019-02-26T01:53:57.972Z,59.36
2019-02-26T01:56:27.219Z,60.52
2019-02-26T01:58:59.327Z,60.81
2019-02-26T02:01:27.395Z,61.11
2019-02-26T02:03:56.599Z,61.46
2019-02-26T02:06:25.848Z,61.50
2019-02-26T02:08:55.802Z,60.60
2019-02-26T02:11:28.196Z,60.82
2019-02-26T02:13:55.968Z,60.51
2019-02-26T02:16:28.001Z,60.76
2019-02-26T02:18:58.172Z,60.64
2019-02-26T02:21:30.445Z,60.22
2019-02-26T02:23:58.101Z,60.29
2019-02-26T02:26:27.359Z,61.17
2019-02-26T02:28:56.593Z,60.54
2019-02-26T02:31:30.319Z,60.49
2019-02-26T02:33:56.775Z,61.02
2019-02-26T02:36:26.574Z,59.59
2019-02-26T02:38:56.011Z,60.08
2019-02-26T02:41:25.208Z,60.56
2019-02-26T02:43:54.415Z,60.98
2019-02-26T02:46:23.665Z,61.16
2019-02-26T02:48:52.918Z,60.53
2019-02-26T02:51:22.151Z,60.98
2019-02-26T02:53:54.155Z,61.08
2019-02-26T02:56:22.343Z,61.03
2019-02-26T02:58:51.765Z,61.09
2019-02-26T03:01:22.955Z,61.27
2019-02-26T03:03:53.794Z,61.63
2019-02-26T03:06:24.223Z,60.63
2019-02-26T03:08:53.948Z,60.86
2019-02-26T03:11:23.302Z,60.90
2019-02-26T03:13:53.841Z,60.71
2019-02-26T03:16:25.077Z,60.83
2019-02-26T03:18:54.134Z,60.64
2019-02-26T03:21:24.822Z,61.36
2019-02-26T03:23:54.369Z,61.37
2019-02-26T03:26:25.864Z,62.45
2019-02-26T03:28:54.609Z,62.34
2019-02-26T03:31:28.800Z,61.49
2019-02-26T03:34:00.083Z,61.16
2019-02-26T03:36:25.756Z,62.59
2019-02-26T03:38:57.271Z,62.34
2019-02-26T03:41:28.309Z,61.77
2019-02-26T03:43:58.473Z,62.57
2019-02-26T03:46:27.856Z,62.35
2019-02-26T03:48:57.092Z,62.08
2019-02-26T03:51:26.322Z,62.61
2019-02-26T03:53:55.548Z,62.22
2019-02-26T03:56:24.873Z,61.56
2019-02-26T03:58:57.074Z,62.05
2019-02-26T04:01:25.127Z,62.17
2019-02-26T04:03:55.106Z,61.75
2019-02-26T04:06:25.312Z,61.51
2019-02-26T04:08:55.942Z,62.46
2019-02-26T04:11:27.686Z,62.27
2019-02-26T04:13:56.739Z,61.82
2019-02-26T04:16:26.065Z,61.87
2019-02-26T04:18:55.277Z,62.32
2019-02-26T04:21:25.971Z,62.80
2019-02-26T04:23:55.208Z,63.15
2019-02-26T04:27:11.748Z,63.00
2019-02-26T04:30:06.310Z,62.64
2019-02-26T04:33:20.270Z,62.66
2019-02-26T04:36:16.889Z,62.41
2019-02-26T04:39:16.306Z,62.45
2019-02-26T04:41:57.956Z,62.13
2019-02-26T04:45:10.647Z,62.40
2019-02-26T04:47:40.929Z,62.34
2019-02-26T04:50:10.185Z,62.38
2019-02-26T04:52:41.224Z,62.58
2019-02-26T04:55:10.365Z,63.27
2019-02-26T04:57:42.416Z,62.66
2019-02-26T05:00:10.822Z,63.06
2019-02-26T05:02:40.036Z,63.13
2019-02-26T05:05:09.365Z,63.27
2019-02-26T05:07:41.332Z,62.99
2019-02-26T05:10:09.669Z,63.17
2019-02-26T05:12:40.177Z,63.32
2019-02-26T05:15:13.965Z,62.70
2019-02-26T05:17:40.472Z,62.02
2019-02-26T05:20:12.978Z,62.18
2019-02-26T05:22:40.766Z,61.68
2019-02-26T05:25:13.991Z,62.47
2019-02-26T05:27:42.825Z,62.17
2019-02-26T05:30:13.905Z,61.85
2019-02-26T05:32:42.972Z,62.13
2019-02-26T05:35:14.497Z,62.96
2019-02-26T05:37:43.198Z,63.36
2019-02-26T05:40:15.325Z,62.21
2019-02-26T05:42:43.410Z,62.24
2019-02-26T05:45:12.689Z,62.26
2019-02-26T05:47:43.047Z,61.98
2019-02-26T05:50:16.176Z,61.35
2019-02-26T05:52:43.825Z,62.57
2019-02-26T05:55:14.600Z,62.39
2019-02-26T05:57:44.042Z,62.54
2019-02-26T06:00:18.234Z,62.62
2019-02-26T06:02:48.537Z,63.99
2019-02-26T06:05:18.377Z,63.82
2019-02-26T06:07:47.569Z,63.15
2019-02-26T06:10:18.889Z,63.15
2019-02-26T06:12:47.831Z,63.54
2019-02-26T06:15:17.054Z,63.78
2019-02-26T06:17:48.120Z,62.98
2019-02-26T06:20:19.681Z,63.80
2019-02-26T06:22:48.915Z,63.57
2019-02-26T06:25:23.651Z,64.28
2019-02-26T06:27:49.130Z,63.78
2019-02-26T06:30:18.527Z,63.79
2019-02-26T06:32:47.794Z,63.45
2019-02-26T06:35:19.397Z,63.57
2019-02-26T06:37:48.146Z,64.00
2019-02-26T06:40:17.435Z,64.47
2019-02-26T06:42:46.702Z,64.14
2019-02-26T06:45:16.797Z,64.43
2019-02-26T06:47:48.606Z,63.89
2019-02-26T06:50:18.815Z,63.38
2019-02-26T06:52:50.578Z,63.41
2019-02-26T06:55:19.308Z,63.92
2019-02-26T06:57:50.914Z,64.03
2019-02-26T07:00:23.849Z,63.87
2019-02-26T07:02:50.526Z,63.25
2019-02-26T07:05:23.863Z,63.75
2019-02-26T07:07:54.175Z,62.70
2019-02-26T07:10:26.014Z,62.59
2019-02-26T07:12:52.655Z,62.49
2019-02-26T07:15:21.894Z,62.48
2019-02-26T07:17:51.140Z,62.35
2019-02-26T07:20:20.367Z,63.00
2019-02-26T07:22:51.632Z,62.93
2019-02-26T07:25:20.623Z,63.17
2019-02-26T07:27:51.384Z,62.48
2019-02-26T07:30:20.871Z,61.86
2019-02-26T07:32:50.145Z,61.96
2019-02-26T07:35:19.401Z,62.00
2019-02-26T07:37:48.720Z,61.43
2019-02-26T07:40:18.706Z,61.70
2019-02-26T07:42:49.225Z,61.73
2019-02-26T07:45:21.907Z,60.33
2019-02-26T07:47:51.458Z,58.81
2019-02-26T07:50:20.632Z,59.06
2019-02-26T07:52:52.040Z,58.09
2019-02-26T07:55:20.853Z,59.32
2019-02-26T07:57:51.232Z,58.89
2019-02-26T08:00:22.299Z,59.53
2019-02-26T08:02:54.015Z,58.75
2019-02-26T08:05:25.724Z,57.80
2019-02-26T08:07:56.689Z,56.90
2019-02-26T08:10:25.912Z,56.09
2019-02-26T08:12:56.625Z,55.90
2019-02-26T08:15:27.988Z,56.10
2019-02-26T08:17:58.449Z,55.91
2019-02-26T08:20:30.222Z,55.69
2019-02-26T08:23:01.315Z,55.51
2019-02-26T08:25:30.344Z,55.64
2019-02-26T08:28:01.324Z,55.65
2019-02-26T08:30:30.663Z,56.06
2019-02-26T08:33:04.162Z,55.05
2019-02-26T08:35:30.909Z,53.98
2019-02-26T08:38:00.178Z,54.28
2019-02-26T08:40:29.460Z,54.52
2019-02-26T08:42:58.687Z,54.32
2019-02-26T08:45:28.138Z,53.40
2019-02-26T08:47:57.365Z,53.23
2019-02-26T08:50:30.688Z,52.02
2019-02-26T08:52:58.465Z,51.59
2019-02-26T08:55:27.854Z,51.94
2019-02-26T08:57:57.118Z,51.24
2019-02-26T09:00:26.390Z,50.34
2019-02-26T09:02:56.649Z,50.07
2019-02-26T09:05:29.242Z,51.25
2019-02-26T09:07:57.505Z,50.97
2019-02-26T09:10:26.774Z,50.24
2019-02-26T09:12:56.015Z,49.75
2019-02-26T09:15:25.301Z,50.15
2019-02-26T09:17:54.607Z,49.60
2019-02-26T09:20:23.873Z,48.90
2019-02-26T09:22:54.579Z,48.47
2019-02-26T09:25:26.117Z,48.65
2019-02-26T09:27:55.086Z,48.52
2019-02-26T09:30:24.357Z,47.32
2019-02-26T09:32:53.648Z,47.54
2019-02-26T09:35:26.887Z,46.15
2019-02-26T09:37:56.383Z,45.84
2019-02-26T09:40:26.609Z,45.56
2019-02-26T09:42:58.143Z,44.53
2019-02-26T09:45:30.012Z,44.34
2019-02-26T09:47:58.316Z,44.42
2019-02-26T09:50:27.590Z,43.65
2019-02-26T09:52:59.157Z,43.59
2019-02-26T09:55:29.614Z,42.81
2019-02-26T09:57:58.871Z,43.38
2019-02-26T10:00:29.525Z,43.04
2019-02-26T10:02:58.983Z,43.46
2019-02-26T10:05:28.253Z,42.74
2019-02-26T10:07:59.999Z,42.14
2019-02-26T10:10:31.092Z,41.89
2019-02-26T10:13:02.042Z,41.54
2019-02-26T10:15:32.359Z,42.24
2019-02-26T10:18:04.025Z,42.18
2019-02-26T10:20:32.935Z,41.26
2019-02-26T10:23:04.251Z,40.97
2019-02-26T10:25:34.944Z,41.43
2019-02-26T10:28:08.740Z,40.87
2019-02-26T10:30:38.291Z,39.86
2019-02-26T10:33:08.351Z,39.42
2019-02-26T10:35:39.692Z,39.19
2019-02-26T10:38:11.520Z,38.80
2019-02-26T10:40:50.626Z,39.14
2019-02-26T10:43:10.545Z,38.83
2019-02-26T10:45:42.451Z,38.88
2019-02-26T10:48:10.833Z,38.53
2019-02-26T10:50:42.521Z,38.32
2019-02-26T10:53:13.785Z,37.12
2019-02-26T10:55:42.310Z,36.89
2019-02-26T10:58:13.209Z,37.74
2019-02-26T11:00:43.242Z,37.46
2019-02-26T11:03:14.854Z,37.08
2019-02-26T11:05:45.222Z,37.10
2019-02-26T11:08:14.525Z,37.21
2019-02-26T11:10:44.905Z,36.93
2019-02-26T11:13:15.880Z,36.34
2019-02-26T11:15:48.250Z,37.19
2019-02-26T11:18:18.042Z,36.30
2019-02-26T11:20:50.156Z,35.83
2019-02-26T11:23:18.781Z,34.92
2019-02-26T11:25:48.024Z,34.91
2019-02-26T11:28:17.270Z,35.42
2019-02-26T11:30:49.039Z,35.36
2019-02-26T11:33:17.588Z,35.27
2019-02-26T11:35:48.905Z,35.33
2019-02-26T11:38:19.510Z,34.85
2019-02-26T11:40:48.782Z,35.24
2019-02-26T11:43:22.563Z,35.43
2019-02-26T11:45:49.131Z,35.36
2019-02-26T11:48:20.658Z,35.13
2019-02-26T11:50:49.402Z,33.59
2019-02-26T11:53:18.814Z,33.47
2019-02-26T11:55:51.378Z,33.27
2019-02-26T11:58:21.814Z,33.03
2019-02-26T12:00:52.634Z,32.87
2019-02-26T12:03:24.894Z,33.03
2019-02-26T12:05:54.200Z,33.46
2019-02-26T12:08:25.749Z,32.87
2019-02-26T12:10:58.010Z,32.86
2019-02-26T12:13:27.720Z,32.94
2019-02-26T12:15:57.074Z,31.97
2019-02-26T12:18:26.318Z,30.72
2019-02-26T12:20:55.568Z,29.94
2019-02-26T12:23:24.786Z,29.26
2019-02-26T12:25:55.512Z,29.39
2019-02-26T12:28:26.049Z,28.78
2019-02-26T12:30:58.398Z,29.01
2019-02-26T12:33:27.070Z,29.02
2019-02-26T12:35:59.000Z,28.57
2019-02-26T12:38:27.264Z,28.99
2019-02-26T12:40:56.568Z,28.53
2019-02-26T12:43:25.829Z,28.89
2019-02-26T12:45:56.606Z,28.07
2019-02-26T12:48:26.077Z,28.13
2019-02-26T12:50:57.763Z,29.38
2019-02-26T12:53:26.321Z,28.69
2019-02-26T12:55:56.635Z,27.89
2019-02-26T12:58:27.879Z,28.59
2019-02-26T13:00:57.315Z,29.24
2019-02-26T13:03:26.517Z,29.04
2019-02-26T13:05:55.773Z,29.28
2019-02-26T13:08:25.159Z,29.54
2019-02-26T13:10:57.779Z,29.51
2019-02-26T13:13:25.450Z,28.93
2019-02-26T13:15:54.724Z,29.12
2019-02-26T13:18:23.961Z,29.01
2019-02-26T13:20:59.469Z,29.37
2019-02-26T13:23:24.165Z,29.29
2019-02-26T13:25:53.457Z,29.57
2019-02-26T13:28:29.276Z,29.29
2019-02-26T13:30:53.725Z,28.91
2019-02-26T13:33:27.506Z,28.92
2019-02-26T13:36:00.422Z,28.39
2019-02-26T13:38:34.003Z,28.53
2019-02-26T13:41:19.914Z,28.49
2019-02-26T13:43:28.625Z,28.62
2019-02-26T13:45:57.971Z,28.60
2019-02-26T13:48:27.276Z,28.93
2019-02-26T13:50:56.741Z,29.25
2019-02-26T13:53:26.022Z,28.67
2019-02-26T13:55:55.249Z,28.48
2019-02-26T13:58:24.571Z,28.49
2019-02-26T14:00:53.813Z,28.26
2019-02-26T14:03:23.170Z,28.43
2019-02-26T14:05:52.407Z,28.65
2019-02-26T14:08:21.684Z,27.86
2019-02-26T14:10:50.974Z,27.82
2019-02-26T14:13:20.429Z,27.99
2019-02-26T14:15:49.719Z,28.42
2019-02-26T14:18:19.043Z,29.16
2019-02-26T14:20:48.282Z,27.74
2019-02-26T14:23:17.637Z,28.38
2019-02-26T14:25:46.963Z,28.19
2019-02-26T14:28:16.220Z,28.49
2019-02-26T14:30:45.528Z,27.55
2019-02-26T14:33:14.918Z,27.60
2019-02-26T14:35:44.173Z,27.93
2019-02-26T14:38:13.481Z,27.49
2019-02-26T14:40:42.762Z,28.23
2019-02-26T14:46:49.586Z,27.83
2019-02-26T14:49:19.076Z,27.92
2019-02-26T14:51:48.335Z,27.83
2019-02-26T14:54:17.747Z,27.19
2019-02-26T14:56:47.045Z,27.36
2019-02-26T14:59:16.389Z,27.91
2019-02-26T15:01:45.728Z,27.50
2019-02-26T15:04:14.939Z,27.60
2019-02-26T15:06:44.292Z,27.78
2019-02-26T15:09:13.524Z,27.26
2019-02-26T15:11:42.808Z,27.37
2019-02-26T15:14:12.108Z,26.78
2019-02-26T15:16:41.345Z,26.62
2019-02-26T15:19:10.602Z,26.73
2019-02-26T15:21:39.942Z,26.71
2019-02-26T15:24:09.432Z,26.87
2019-02-26T15:26:38.737Z,26.72
2019-02-26T15:29:07.987Z,27.35
2019-02-26T15:31:37.317Z,26.97
2019-02-26T15:34:06.616Z,27.04
2019-02-26T15:36:36.089Z,26.63
2019-02-26T15:39:06.471Z,26.38
2019-02-26T15:41:35.746Z,27.08
2019-02-26T15:44:05.070Z,26.82
2019-02-26T15:46:37.783Z,27.53
2019-02-26T15:49:07.675Z,26.85
2019-02-26T15:51:37.065Z,26.51
2019-02-26T15:54:06.297Z,26.57
2019-02-26T15:56:35.649Z,27.04
2019-02-26T15:59:05.307Z,27.32
2019-02-26T16:01:34.584Z,27.03
2019-02-26T16:04:03.880Z,27.13
2019-02-26T16:06:33.178Z,27.37
2019-02-26T16:09:02.497Z,28.21
2019-02-26T16:11:31.844Z,27.78
2019-02-26T16:14:01.216Z,26.83
2019-02-26T16:16:30.508Z,27.32
2019-02-26T16:19:00.731Z,27.91
2019-02-26T16:21:30.500Z,27.96
2019-02-26T16:23:59.822Z,28.66
2019-02-26T16:26:29.102Z,28.18
2019-02-26T16:29:00.918Z,28.65
2019-02-26T16:31:29.937Z,28.52
2019-02-26T16:33:59.938Z,29.06
2019-02-26T16:36:31.724Z,29.16
2019-02-26T16:39:00.178Z,29.06
2019-02-26T16:41:29.456Z,29.22
2019-02-26T16:43:58.738Z,29.82
2019-02-26T16:46:28.059Z,29.86
2019-02-26T16:48:57.330Z,30.15
2019-02-26T16:51:26.656Z,30.53
2019-02-26T16:53:55.967Z,30.33
2019-02-26T16:56:25.223Z,31.05
2019-02-26T16:58:54.710Z,30.76
2019-02-26T17:01:24.097Z,31.04
2019-02-26T17:03:53.386Z,31.18
2019-02-26T17:06:22.701Z,31.40
2019-02-26T17:08:51.970Z,31.53
2019-02-26T17:11:21.446Z,31.78
2019-02-26T17:13:50.691Z,32.13
2019-02-26T17:16:20.146Z,32.70
2019-02-26T17:18:49.535Z,32.46
2019-02-26T17:21:18.834Z,33.34
2019-02-26T17:23:48.271Z,34.08
2019-02-26T17:26:17.570Z,34.52
2019-02-26T17:28:46.920Z,34.58
2019-02-26T17:31:16.276Z,34.78
2019-02-26T17:33:46.729Z,35.55
2019-02-26T17:36:16.486Z,35.63
2019-02-26T17:38:45.737Z,36.60
2019-02-26T17:41:15.025Z,37.46
2019-02-26T17:43:44.290Z,37.52
2019-02-26T17:46:13.541Z,37.62
2019-02-26T17:48:43.708Z,37.90
2019-02-26T17:51:13.157Z,37.78
2019-02-26T17:53:42.409Z,37.99
2019-02-26T17:56:11.795Z,38.66
2019-02-26T17:58:41.720Z,39.33
2019-02-26T18:01:12.096Z,39.14
2019-02-26T18:03:44.576Z,38.85
2019-02-26T18:06:13.162Z,38.88
2019-02-26T18:08:42.452Z,39.27
2019-02-26T18:11:11.730Z,38.45
2019-02-26T18:13:41.079Z,39.02
2019-02-26T18:16:10.335Z,39.06
2019-02-26T18:18:42.746Z,39.53
2019-02-26T18:21:11.101Z,40.19
2019-02-26T18:23:40.384Z,40.40
2019-02-26T18:26:09.669Z,40.88
2019-02-26T18:28:38.973Z,41.21
2019-02-26T18:31:08.350Z,41.74
2019-02-26T18:33:37.939Z,42.10
2019-02-26T18:36:07.208Z,42.46
2019-02-26T18:38:36.490Z,42.46
2019-02-26T18:41:05.808Z,42.47
2019-02-26T18:43:35.073Z,43.33
2019-02-26T18:46:04.403Z,43.14
2019-02-26T18:48:33.684Z,43.51
2019-02-26T18:51:03.056Z,43.27
2019-02-26T18:53:32.341Z,43.58
2019-02-26T18:56:03.995Z,43.94
2019-02-26T18:58:32.665Z,44.33
2019-02-26T19:01:01.922Z,44.26
2019-02-26T19:03:31.201Z,44.80
2019-02-26T19:06:03.659Z,44.73
2019-02-26T19:08:34.625Z,44.84
2019-02-26T19:11:04.221Z,45.21
2019-02-26T19:13:35.621Z,45.63
2019-02-26T19:16:04.750Z,46.14
2019-02-26T19:18:35.756Z,46.28
2019-02-26T19:21:05.301Z,46.75
2019-02-26T19:23:34.607Z,47.04
2019-02-26T19:26:03.945Z,47.46
2019-02-26T19:28:37.665Z,47.02
2019-02-26T19:31:09.343Z,46.98
2019-02-26T19:33:38.227Z,47.23
2019-02-26T19:36:07.641Z,47.79
2019-02-26T19:38:36.986Z,48.07
2019-02-26T19:41:12.375Z,48.44
2019-02-26T19:43:40.324Z,48.31
2019-02-26T19:46:10.596Z,45.38
2019-02-26T19:48:40.305Z,45.42
2019-02-26T19:51:09.658Z,45.21
2019-02-26T19:53:38.955Z,45.65
2019-02-26T19:56:08.290Z,45.87
2019-02-26T19:58:40.620Z,45.89
2019-02-26T20:01:08.698Z,45.70
2019-02-26T20:03:40.212Z,45.97
2019-02-26T20:06:09.345Z,46.28
2019-02-26T20:08:38.755Z,46.09
2019-02-26T20:11:08.136Z,46.94
2019-02-26T20:13:42.079Z,47.52
2019-02-26T20:16:08.623Z,47.92
2019-02-26T20:18:37.977Z,48.30
2019-02-26T20:21:07.319Z,49.09
2019-02-26T20:23:36.691Z,49.21
2019-02-26T20:26:06.464Z,49.60
2019-02-26T20:28:35.999Z,49.54
2019-02-26T20:31:05.384Z,50.12
2019-02-26T20:33:34.778Z,50.81
2019-02-26T20:36:04.096Z,50.62
2019-02-26T20:38:35.293Z,50.88
2019-02-26T20:41:04.575Z,50.82
2019-02-26T20:43:36.389Z,51.13
2019-02-26T20:46:04.915Z,51.41
2019-02-26T20:48:36.552Z,50.92
2019-02-26T20:51:05.394Z,51.17
2019-02-26T20:53:36.634Z,51.38
2019-02-26T20:56:05.914Z,52.06
2019-02-26T20:58:35.349Z,52.78
2019-02-26T21:01:04.642Z,52.70
2019-02-26T21:03:34.005Z,53.41
2019-02-26T21:06:03.592Z,54.06
2019-02-26T21:08:32.942Z,53.63
2019-02-26T21:11:02.329Z,53.84
2019-02-26T21:13:34.651Z,53.88
2019-02-26T21:16:02.799Z,53.58
2019-02-26T21:18:32.105Z,54.27
2019-02-26T21:21:01.514Z,54.69
2019-02-26T21:23:32.516Z,54.39
2019-02-26T21:26:01.967Z,54.77
2019-02-26T21:28:33.308Z,54.99
2019-02-26T21:31:02.353Z,54.82
2019-02-26T21:33:31.711Z,54.63
2019-02-26T21:36:01.031Z,54.63
2019-02-26T21:38:30.327Z,54.46
2019-02-26T21:40:59.682Z,55.78
2019-02-26T21:43:28.997Z,56.04
2019-02-26T21:45:58.432Z,55.99
2019-02-26T21:48:27.677Z,56.06
2019-02-26T21:50:57.002Z,55.60
2019-02-26T21:53:26.277Z,55.58
2019-02-26T21:55:55.774Z,55.27
2019-02-26T21:58:26.834Z,55.79
2019-02-26T22:00:56.134Z,56.67
2019-02-26T22:03:25.407Z,56.92
2019-02-26T22:05:54.807Z,56.70
2019-02-26T22:08:24.718Z,56.73
2019-02-26T22:10:54.617Z,56.28
2019-02-26T22:13:23.967Z,56.85
2019-02-26T22:15:53.275Z,56.92
2019-02-26T22:18:22.599Z,56.92
2019-02-26T22:20:51.996Z,56.79
2019-02-26T22:23:21.382Z,56.56
2019-02-26T22:25:52.533Z,57.50
2019-02-26T22:28:23.079Z,56.92
2019-02-26T22:30:55.713Z,57.22
2019-02-26T22:33:23.549Z,57.51
2019-02-26T22:35:52.871Z,57.15
2019-02-26T22:38:22.282Z,57.88
2019-02-26T22:40:51.543Z,58.25
2019-02-26T22:43:20.975Z,58.25
2019-02-26T22:45:50.215Z,58.62
2019-02-26T22:48:19.556Z,58.39
2019-02-26T22:50:48.807Z,58.84
2019-02-26T22:53:18.076Z,58.41
2019-02-26T22:55:49.592Z,58.62
2019-02-26T22:58:18.354Z,59.05
2019-02-26T23:01:30.329Z,59.02
2019-02-26T23:03:53.530Z,58.54
2019-02-26T23:06:22.783Z,58.85
2019-02-26T23:08:52.200Z,59.20
2019-02-26T23:11:21.896Z,59.73
2019-02-26T23:13:51.227Z,59.91
2019-02-26T23:16:20.512Z,59.75
2019-02-26T23:18:49.809Z,59.83
2019-02-26T23:21:19.416Z,60.60
2019-02-26T23:23:48.874Z,60.87
2019-02-26T23:26:18.169Z,60.75
2019-02-26T23:28:47.430Z,60.99
2019-02-26T23:31:17.586Z,61.29
2019-02-26T23:33:48.587Z,61.58
2019-02-26T23:36:17.959Z,61.39
2019-02-26T23:38:47.948Z,60.92
2019-02-26T23:41:17.216Z,59.98
2019-02-26T23:43:46.490Z,60.71
2019-02-26T23:46:15.759Z,61.00
2019-02-26T23:48:45.019Z,61.32
2019-02-26T23:51:14.318Z,61.46
2019-02-26T23:53:43.555Z,61.10
2019-02-26T23:56:12.888Z,61.35
2019-02-26T23:58:42.153Z,61.07
